sensor_id;sensor_type;location;lat;lon;timestamp;P1;durP1;ratioP1;P2;durP2;ratioP2
71288;SDS011;59068;52.502;9.860;2023-08-31T00:01:29;12.13;;;10.93;;
71288;SDS011;59068;52.502;9.860;2023-08-31T00:03:57;14.43;;;11.40;;
71288;SDS011;59068;52.502;9.860;2023-08-31T00:06:24;14.50;;;11.37;;
71288;SDS011;59068;52.502;9.860;2023-08-31T00:08:51;12.40;;;11.20;;
71288;SDS011;59068;52.502;9.860;2023-08-31T00:11:17;13.40;;;11.67;;
71288;SDS011;59068;52.502;9.860;2023-08-31T00:13:45;12.93;;;11.63;;
71288;SDS011;59068;52.502;9.860;2023-08-31T00:16:11;13.60;;;12.20;;
71288;SDS011;59068;52.502;9.860;2023-08-31T00:18:38;13.27;;;11.20;;
71288;SDS011;59068;52.502;9.860;2023-08-31T00:21:06;13.03;;;11.50;;
71288;SDS011;59068;52.502;9.860;2023-08-31T00:23:33;13.73;;;11.33;;
71288;SDS011;59068;52.502;9.860;2023-08-31T00:26:02;12.70;;;11.40;;
71288;SDS011;59068;52.502;9.860;2023-08-31T00:28:28;12.03;;;10.73;;
71288;SDS011;59068;52.502;9.860;2023-08-31T00:30:55;11.70;;;10.50;;
71288;SDS011;59068;52.502;9.860;2023-08-31T00:33:22;13.43;;;10.77;;
71288;SDS011;59068;52.502;9.860;2023-08-31T00:35:52;11.57;;;10.37;;
71288;SDS011;59068;52.502;9.860;2023-08-31T00:38:22;12.10;;;10.60;;
71288;SDS011;59068;52.502;9.860;2023-08-31T00:40:49;11.87;;;10.40;;
71288;SDS011;59068;52.502;9.860;2023-08-31T00:43:15;12.37;;;10.30;;
71288;SDS011;59068;52.502;9.860;2023-08-31T00:45:43;12.17;;;10.50;;
71288;SDS011;59068;52.502;9.860;2023-08-31T00:48:11;10.63;;;9.47;;
71288;SDS011;59068;52.502;9.860;2023-08-31T00:50:38;12.00;;;9.63;;
71288;SDS011;59068;52.502;9.860;2023-08-31T00:53:04;12.87;;;9.90;;
71288;SDS011;59068;52.502;9.860;2023-08-31T00:55:32;9.40;;;8.50;;
71288;SDS011;59068;52.502;9.860;2023-08-31T00:57:59;11.00;;;9.77;;
71288;SDS011;59068;52.502;9.860;2023-08-31T01:00:28;10.10;;;8.60;;
71288;SDS011;59068;52.502;9.860;2023-08-31T01:02:59;9.27;;;8.33;;
71288;SDS011;59068;52.502;9.860;2023-08-31T01:05:33;8.63;;;7.70;;
71288;SDS011;59068;52.502;9.860;2023-08-31T01:08:07;10.43;;;8.20;;
71288;SDS011;59068;52.502;9.860;2023-08-31T01:10:43;8.00;;;7.07;;
71288;SDS011;59068;52.502;9.860;2023-08-31T01:13:14;10.30;;;7.60;;
71288;SDS011;59068;52.502;9.860;2023-08-31T01:15:43;8.20;;;6.77;;
71288;SDS011;59068;52.502;9.860;2023-08-31T01:18:13;8.27;;;7.43;;
71288;SDS011;59068;52.502;9.860;2023-08-31T01:20:44;7.77;;;6.90;;
71288;SDS011;59068;52.502;9.860;2023-08-31T01:23:18;9.77;;;6.77;;
71288;SDS011;59068;52.502;9.860;2023-08-31T01:25:47;8.00;;;7.20;;
71288;SDS011;59068;52.502;9.860;2023-08-31T01:28:14;8.43;;;7.00;;
71288;SDS011;59068;52.502;9.860;2023-08-31T01:30:41;7.80;;;7.00;;
71288;SDS011;59068;52.502;9.860;2023-08-31T01:33:07;9.67;;;7.07;;
71288;SDS011;59068;52.502;9.860;2023-08-31T01:35:36;8.50;;;6.47;;
71288;SDS011;59068;52.502;9.860;2023-08-31T01:38:07;8.33;;;6.77;;
71288;SDS011;59068;52.502;9.860;2023-08-31T01:40:35;8.37;;;6.77;;
71288;SDS011;59068;52.502;9.860;2023-08-31T01:43:06;10.53;;;7.13;;
71288;SDS011;59068;52.502;9.860;2023-08-31T01:45:33;8.27;;;7.47;;
71288;SDS011;59068;52.502;9.860;2023-08-31T01:48:00;8.70;;;7.03;;
71288;SDS011;59068;52.502;9.860;2023-08-31T01:50:27;7.37;;;6.60;;
71288;SDS011;59068;52.502;9.860;2023-08-31T01:52:53;8.43;;;7.10;;
71288;SDS011;59068;52.502;9.860;2023-08-31T01:55:20;8.73;;;7.10;;
71288;SDS011;59068;52.502;9.860;2023-08-31T01:57:47;8.63;;;7.73;;
71288;SDS011;59068;52.502;9.860;2023-08-31T02:00:16;8.80;;;7.83;;
71288;SDS011;59068;52.502;9.860;2023-08-31T02:02:43;9.87;;;7.30;;
71288;SDS011;59068;52.502;9.860;2023-08-31T02:05:09;9.10;;;6.77;;
71288;SDS011;59068;52.502;9.860;2023-08-31T02:07:36;7.43;;;6.70;;
71288;SDS011;59068;52.502;9.860;2023-08-31T02:10:03;9.93;;;7.60;;
71288;SDS011;59068;52.502;9.860;2023-08-31T02:12:31;8.30;;;6.90;;
71288;SDS011;59068;52.502;9.860;2023-08-31T02:14:58;9.33;;;6.97;;
71288;SDS011;59068;52.502;9.860;2023-08-31T02:17:26;10.63;;;7.87;;
71288;SDS011;59068;52.502;9.860;2023-08-31T02:19:52;7.53;;;6.70;;
71288;SDS011;59068;52.502;9.860;2023-08-31T02:22:19;9.00;;;7.53;;
71288;SDS011;59068;52.502;9.860;2023-08-31T02:24:45;9.80;;;8.00;;
71288;SDS011;59068;52.502;9.860;2023-08-31T02:27:12;9.37;;;7.63;;
71288;SDS011;59068;52.502;9.860;2023-08-31T02:29:39;10.17;;;6.90;;
71288;SDS011;59068;52.502;9.860;2023-08-31T02:32:06;11.43;;;7.60;;
71288;SDS011;59068;52.502;9.860;2023-08-31T02:34:36;8.60;;;7.20;;
71288;SDS011;59068;52.502;9.860;2023-08-31T02:37:03;9.07;;;7.10;;
71288;SDS011;59068;52.502;9.860;2023-08-31T02:39:30;9.50;;;6.73;;
71288;SDS011;59068;52.502;9.860;2023-08-31T02:41:56;9.23;;;6.87;;
71288;SDS011;59068;52.502;9.860;2023-08-31T02:44:23;10.57;;;6.97;;
71288;SDS011;59068;52.502;9.860;2023-08-31T02:46:49;8.13;;;6.97;;
71288;SDS011;59068;52.502;9.860;2023-08-31T02:49:16;7.87;;;6.87;;
71288;SDS011;59068;52.502;9.860;2023-08-31T02:51:44;8.27;;;6.70;;
71288;SDS011;59068;52.502;9.860;2023-08-31T02:54:10;7.40;;;6.20;;
71288;SDS011;59068;52.502;9.860;2023-08-31T02:56:37;7.90;;;7.10;;
71288;SDS011;59068;52.502;9.860;2023-08-31T02:59:04;7.70;;;6.17;;
71288;SDS011;59068;52.502;9.860;2023-08-31T03:01:30;7.73;;;6.33;;
71288;SDS011;59068;52.502;9.860;2023-08-31T03:03:57;7.37;;;6.50;;
71288;SDS011;59068;52.502;9.860;2023-08-31T03:06:24;8.60;;;6.60;;
71288;SDS011;59068;52.502;9.860;2023-08-31T03:08:52;9.23;;;7.13;;
71288;SDS011;59068;52.502;9.860;2023-08-31T03:11:19;6.77;;;6.17;;
71288;SDS011;59068;52.502;9.860;2023-08-31T03:13:46;7.03;;;6.37;;
71288;SDS011;59068;52.502;9.860;2023-08-31T03:16:12;7.97;;;6.37;;
71288;SDS011;59068;52.502;9.860;2023-08-31T03:18:39;8.03;;;6.53;;
71288;SDS011;59068;52.502;9.860;2023-08-31T03:21:05;7.03;;;6.33;;
71288;SDS011;59068;52.502;9.860;2023-08-31T03:23:33;7.33;;;6.43;;
71288;SDS011;59068;52.502;9.860;2023-08-31T03:26:05;7.87;;;7.07;;
71288;SDS011;59068;52.502;9.860;2023-08-31T03:28:32;8.07;;;6.53;;
71288;SDS011;59068;52.502;9.860;2023-08-31T03:30:59;7.43;;;6.70;;
71288;SDS011;59068;52.502;9.860;2023-08-31T03:33:26;8.07;;;7.27;;
71288;SDS011;59068;52.502;9.860;2023-08-31T03:35:54;8.03;;;7.20;;
71288;SDS011;59068;52.502;9.860;2023-08-31T03:38:20;7.70;;;7.03;;
71288;SDS011;59068;52.502;9.860;2023-08-31T03:40:52;9.37;;;7.20;;
71288;SDS011;59068;52.502;9.860;2023-08-31T03:43:21;8.00;;;7.20;;
71288;SDS011;59068;52.502;9.860;2023-08-31T03:45:47;9.23;;;7.60;;
71288;SDS011;59068;52.502;9.860;2023-08-31T03:48:14;8.00;;;7.20;;
71288;SDS011;59068;52.502;9.860;2023-08-31T03:50:41;7.87;;;7.07;;
71288;SDS011;59068;52.502;9.860;2023-08-31T03:53:07;9.17;;;8.00;;
71288;SDS011;59068;52.502;9.860;2023-08-31T03:55:35;7.97;;;7.17;;
71288;SDS011;59068;52.502;9.860;2023-08-31T03:58:02;8.27;;;7.43;;
71288;SDS011;59068;52.502;9.860;2023-08-31T04:00:30;8.50;;;7.70;;
71288;SDS011;59068;52.502;9.860;2023-08-31T04:02:57;7.63;;;7.00;;
71288;SDS011;59068;52.502;9.860;2023-08-31T04:05:23;8.57;;;7.50;;
71288;SDS011;59068;52.502;9.860;2023-08-31T04:07:50;11.47;;;8.30;;
71288;SDS011;59068;52.502;9.860;2023-08-31T04:10:17;8.93;;;7.40;;
71288;SDS011;59068;52.502;9.860;2023-08-31T04:12:44;10.57;;;9.50;;
71288;SDS011;59068;52.502;9.860;2023-08-31T04:15:11;9.37;;;8.47;;
71288;SDS011;59068;52.502;9.860;2023-08-31T04:17:40;10.97;;;7.90;;
71288;SDS011;59068;52.502;9.860;2023-08-31T04:20:07;9.17;;;8.27;;
71288;SDS011;59068;52.502;9.860;2023-08-31T04:22:33;9.13;;;8.23;;
71288;SDS011;59068;52.502;9.860;2023-08-31T04:25:00;10.13;;;8.10;;
71288;SDS011;59068;52.502;9.860;2023-08-31T04:27:27;9.60;;;8.63;;
71288;SDS011;59068;52.502;9.860;2023-08-31T04:29:56;9.83;;;8.83;;
71288;SDS011;59068;52.502;9.860;2023-08-31T04:32:22;10.07;;;8.23;;
71288;SDS011;59068;52.502;9.860;2023-08-31T04:34:51;10.53;;;9.37;;
71288;SDS011;59068;52.502;9.860;2023-08-31T04:37:18;9.63;;;8.70;;
71288;SDS011;59068;52.502;9.860;2023-08-31T04:39:45;11.20;;;9.47;;
71288;SDS011;59068;52.502;9.860;2023-08-31T04:42:11;10.43;;;9.30;;
71288;SDS011;59068;52.502;9.860;2023-08-31T04:44:38;10.77;;;9.67;;
71288;SDS011;59068;52.502;9.860;2023-08-31T04:47:04;11.13;;;9.70;;
71288;SDS011;59068;52.502;9.860;2023-08-31T04:49:31;11.57;;;9.30;;
71288;SDS011;59068;52.502;9.860;2023-08-31T04:51:59;10.40;;;9.30;;
71288;SDS011;59068;52.502;9.860;2023-08-31T04:54:26;11.03;;;9.43;;
71288;SDS011;59068;52.502;9.860;2023-08-31T04:56:52;10.80;;;9.70;;
71288;SDS011;59068;52.502;9.860;2023-08-31T04:59:19;10.83;;;9.73;;
71288;SDS011;59068;52.502;9.860;2023-08-31T05:01:45;11.23;;;8.80;;
71288;SDS011;59068;52.502;9.860;2023-08-31T05:04:12;11.97;;;8.60;;
71288;SDS011;59068;52.502;9.860;2023-08-31T05:06:39;9.93;;;8.93;;
71288;SDS011;59068;52.502;9.860;2023-08-31T05:09:07;12.60;;;8.53;;
71288;SDS011;59068;52.502;9.860;2023-08-31T05:11:35;10.60;;;8.40;;
71288;SDS011;59068;52.502;9.860;2023-08-31T05:14:01;9.37;;;8.10;;
71288;SDS011;59068;52.502;9.860;2023-08-31T05:16:28;9.73;;;8.10;;
71288;SDS011;59068;52.502;9.860;2023-08-31T05:18:55;9.37;;;7.90;;
71288;SDS011;59068;52.502;9.860;2023-08-31T05:21:22;8.47;;;6.80;;
71288;SDS011;59068;52.502;9.860;2023-08-31T05:23:48;9.00;;;8.10;;
71288;SDS011;59068;52.502;9.860;2023-08-31T05:26:16;8.77;;;7.23;;
71288;SDS011;59068;52.502;9.860;2023-08-31T05:28:43;9.13;;;7.03;;
71288;SDS011;59068;52.502;9.860;2023-08-31T05:31:10;9.73;;;7.10;;
71288;SDS011;59068;52.502;9.860;2023-08-31T05:33:36;9.23;;;7.00;;
71288;SDS011;59068;52.502;9.860;2023-08-31T05:36:03;9.43;;;7.43;;
71288;SDS011;59068;52.502;9.860;2023-08-31T05:38:30;8.27;;;7.20;;
71288;SDS011;59068;52.502;9.860;2023-08-31T05:41:03;9.83;;;7.80;;
71288;SDS011;59068;52.502;9.860;2023-08-31T05:43:33;9.97;;;7.73;;
71288;SDS011;59068;52.502;9.860;2023-08-31T05:46:00;9.53;;;8.03;;
71288;SDS011;59068;52.502;9.860;2023-08-31T05:48:26;11.07;;;8.60;;
71288;SDS011;59068;52.502;9.860;2023-08-31T05:50:53;9.80;;;8.80;;
71288;SDS011;59068;52.502;9.860;2023-08-31T05:53:20;11.07;;;8.83;;
71288;SDS011;59068;52.502;9.860;2023-08-31T05:55:46;10.23;;;8.67;;
71288;SDS011;59068;52.502;9.860;2023-08-31T05:58:13;12.13;;;9.40;;
71288;SDS011;59068;52.502;9.860;2023-08-31T06:00:41;9.90;;;8.70;;
71288;SDS011;59068;52.502;9.860;2023-08-31T06:03:08;9.00;;;8.20;;
71288;SDS011;59068;52.502;9.860;2023-08-31T06:05:39;10.37;;;9.27;;
71288;SDS011;59068;52.502;9.860;2023-08-31T06:08:05;12.67;;;8.80;;
71288;SDS011;59068;52.502;9.860;2023-08-31T06:10:32;10.93;;;9.23;;
71288;SDS011;59068;52.502;9.860;2023-08-31T06:12:59;11.97;;;10.20;;
71288;SDS011;59068;52.502;9.860;2023-08-31T06:15:26;10.77;;;9.77;;
71288;SDS011;59068;52.502;9.860;2023-08-31T06:17:55;13.60;;;10.43;;
71288;SDS011;59068;52.502;9.860;2023-08-31T06:20:22;13.50;;;10.20;;
71288;SDS011;59068;52.502;9.860;2023-08-31T06:22:48;14.13;;;12.07;;
71288;SDS011;59068;52.502;9.860;2023-08-31T06:25:15;14.10;;;12.67;;
71288;SDS011;59068;52.502;9.860;2023-08-31T06:27:43;13.03;;;11.00;;
71288;SDS011;59068;52.502;9.860;2023-08-31T06:30:10;13.90;;;11.90;;
71288;SDS011;59068;52.502;9.860;2023-08-31T06:32:41;14.57;;;13.10;;
71288;SDS011;59068;52.502;9.860;2023-08-31T06:35:10;14.03;;;11.33;;
71288;SDS011;59068;52.502;9.860;2023-08-31T06:37:37;15.87;;;14.17;;
71288;SDS011;59068;52.502;9.860;2023-08-31T06:40:04;13.30;;;11.83;;
71288;SDS011;59068;52.502;9.860;2023-08-31T06:42:31;16.10;;;14.43;;
71288;SDS011;59068;52.502;9.860;2023-08-31T06:44:58;14.83;;;13.43;;
71288;SDS011;59068;52.502;9.860;2023-08-31T06:47:24;15.57;;;14.07;;
71288;SDS011;59068;52.502;9.860;2023-08-31T06:49:51;15.93;;;13.83;;
71288;SDS011;59068;52.502;9.860;2023-08-31T06:52:19;14.93;;;13.53;;
71288;SDS011;59068;52.502;9.860;2023-08-31T06:54:46;16.93;;;15.03;;
71288;SDS011;59068;52.502;9.860;2023-08-31T06:57:13;15.93;;;14.33;;
71288;SDS011;59068;52.502;9.860;2023-08-31T06:59:39;15.93;;;14.27;;
71288;SDS011;59068;52.502;9.860;2023-08-31T07:02:06;16.73;;;14.97;;
71288;SDS011;59068;52.502;9.860;2023-08-31T07:04:32;17.23;;;15.00;;
71288;SDS011;59068;52.502;9.860;2023-08-31T07:06:59;15.83;;;14.33;;
71288;SDS011;59068;52.502;9.860;2023-08-31T07:09:27;16.60;;;15.00;;
71288;SDS011;59068;52.502;9.860;2023-08-31T07:11:53;17.77;;;15.97;;
71288;SDS011;59068;52.502;9.860;2023-08-31T07:14:20;17.80;;;15.97;;
71288;SDS011;59068;52.502;9.860;2023-08-31T07:16:46;17.73;;;15.97;;
71288;SDS011;59068;52.502;9.860;2023-08-31T07:19:13;17.07;;;15.37;;
71288;SDS011;59068;52.502;9.860;2023-08-31T07:21:40;17.57;;;15.87;;
71288;SDS011;59068;52.502;9.860;2023-08-31T07:24:06;16.57;;;14.97;;
71288;SDS011;59068;52.502;9.860;2023-08-31T07:26:35;17.27;;;15.57;;
71288;SDS011;59068;52.502;9.860;2023-08-31T07:29:01;19.13;;;17.07;;
71288;SDS011;59068;52.502;9.860;2023-08-31T07:31:29;18.70;;;16.70;;
71288;SDS011;59068;52.502;9.860;2023-08-31T07:33:56;18.47;;;16.03;;
71288;SDS011;59068;52.502;9.860;2023-08-31T07:36:23;20.23;;;17.83;;
71288;SDS011;59068;52.502;9.860;2023-08-31T07:38:50;17.87;;;16.03;;
71288;SDS011;59068;52.502;9.860;2023-08-31T07:41:17;19.37;;;17.40;;
71288;SDS011;59068;52.502;9.860;2023-08-31T07:43:45;18.73;;;16.80;;
71288;SDS011;59068;52.502;9.860;2023-08-31T07:46:11;18.07;;;16.20;;
71288;SDS011;59068;52.502;9.860;2023-08-31T07:48:38;17.43;;;15.63;;
71288;SDS011;59068;52.502;9.860;2023-08-31T07:51:04;17.63;;;15.83;;
71288;SDS011;59068;52.502;9.860;2023-08-31T07:53:31;16.83;;;15.03;;
71288;SDS011;59068;52.502;9.860;2023-08-31T07:55:58;18.00;;;16.27;;
71288;SDS011;59068;52.502;9.860;2023-08-31T07:58:24;17.17;;;15.50;;
71288;SDS011;59068;52.502;9.860;2023-08-31T08:00:53;16.63;;;15.13;;
71288;SDS011;59068;52.502;9.860;2023-08-31T08:03:20;16.47;;;14.87;;
71288;SDS011;59068;52.502;9.860;2023-08-31T08:05:47;16.97;;;15.37;;
71288;SDS011;59068;52.502;9.860;2023-08-31T08:08:14;16.00;;;14.30;;
71288;SDS011;59068;52.502;9.860;2023-08-31T08:10:41;17.00;;;15.27;;
71288;SDS011;59068;52.502;9.860;2023-08-31T08:13:08;14.57;;;13.17;;
71288;SDS011;59068;52.502;9.860;2023-08-31T08:15:35;13.60;;;12.40;;
71288;SDS011;59068;52.502;9.860;2023-08-31T08:18:03;14.37;;;13.07;;
71288;SDS011;59068;52.502;9.860;2023-08-31T08:20:30;12.37;;;11.17;;
71288;SDS011;59068;52.502;9.860;2023-08-31T08:22:57;11.73;;;10.63;;
71288;SDS011;59068;52.502;9.860;2023-08-31T08:25:24;12.13;;;11.13;;
71288;SDS011;59068;52.502;9.860;2023-08-31T08:27:51;12.27;;;11.17;;
71288;SDS011;59068;52.502;9.860;2023-08-31T08:30:17;11.33;;;10.33;;
71288;SDS011;59068;52.502;9.860;2023-08-31T08:32:44;12.30;;;11.20;;
71288;SDS011;59068;52.502;9.860;2023-08-31T08:35:12;12.40;;;11.20;;
71288;SDS011;59068;52.502;9.860;2023-08-31T08:37:39;12.27;;;10.83;;
71288;SDS011;59068;52.502;9.860;2023-08-31T08:40:06;10.83;;;9.90;;
71288;SDS011;59068;52.502;9.860;2023-08-31T08:42:36;10.60;;;9.50;;
71288;SDS011;59068;52.502;9.860;2023-08-31T08:45:06;11.10;;;10.00;;
71288;SDS011;59068;52.502;9.860;2023-08-31T08:47:34;11.50;;;10.47;;
71288;SDS011;59068;52.502;9.860;2023-08-31T08:50:02;10.80;;;9.70;;
71288;SDS011;59068;52.502;9.860;2023-08-31T08:52:30;9.23;;;8.43;;
71288;SDS011;59068;52.502;9.860;2023-08-31T08:54:56;10.33;;;9.33;;
71288;SDS011;59068;52.502;9.860;2023-08-31T08:57:24;9.40;;;8.50;;
71288;SDS011;59068;52.502;9.860;2023-08-31T08:59:50;10.10;;;9.20;;
71288;SDS011;59068;52.502;9.860;2023-08-31T09:02:17;9.73;;;8.93;;
71288;SDS011;59068;52.502;9.860;2023-08-31T09:04:43;9.17;;;8.37;;
71288;SDS011;59068;52.502;9.860;2023-08-31T09:07:10;9.10;;;8.30;;
71288;SDS011;59068;52.502;9.860;2023-08-31T09:09:49;9.73;;;8.37;;
71288;SDS011;59068;52.502;9.860;2023-08-31T09:12:16;8.87;;;8.07;;
71288;SDS011;59068;52.502;9.860;2023-08-31T09:14:43;8.67;;;7.73;;
71288;SDS011;59068;52.502;9.860;2023-08-31T09:17:09;8.47;;;7.80;;
71288;SDS011;59068;52.502;9.860;2023-08-31T09:19:36;8.20;;;7.50;;
71288;SDS011;59068;52.502;9.860;2023-08-31T09:22:02;8.73;;;8.10;;
71288;SDS011;59068;52.502;9.860;2023-08-31T09:24:29;8.43;;;7.73;;
71288;SDS011;59068;52.502;9.860;2023-08-31T09:27:08;8.97;;;8.17;;
71288;SDS011;59068;52.502;9.860;2023-08-31T09:29:37;8.13;;;7.40;;
71288;SDS011;59068;52.502;9.860;2023-08-31T09:32:05;7.37;;;6.77;;
71288;SDS011;59068;52.502;9.860;2023-08-31T09:34:34;7.50;;;6.80;;
71288;SDS011;59068;52.502;9.860;2023-08-31T09:37:05;8.73;;;7.93;;
71288;SDS011;59068;52.502;9.860;2023-08-31T09:39:36;7.73;;;7.10;;
71288;SDS011;59068;52.502;9.860;2023-08-31T09:42:03;7.63;;;6.93;;
71288;SDS011;59068;52.502;9.860;2023-08-31T09:44:31;7.63;;;7.07;;
71288;SDS011;59068;52.502;9.860;2023-08-31T09:46:58;8.57;;;7.80;;
71288;SDS011;59068;52.502;9.860;2023-08-31T09:49:25;8.60;;;7.90;;
71288;SDS011;59068;52.502;9.860;2023-08-31T09:51:52;7.60;;;7.07;;
71288;SDS011;59068;52.502;9.860;2023-08-31T09:54:19;7.87;;;7.17;;
71288;SDS011;59068;52.502;9.860;2023-08-31T09:56:47;7.37;;;6.77;;
71288;SDS011;59068;52.502;9.860;2023-08-31T09:59:14;7.90;;;7.13;;
71288;SDS011;59068;52.502;9.860;2023-08-31T10:01:44;7.70;;;7.00;;
71288;SDS011;59068;52.502;9.860;2023-08-31T10:04:11;7.77;;;7.07;;
71288;SDS011;59068;52.502;9.860;2023-08-31T10:06:39;6.57;;;6.07;;
71288;SDS011;59068;52.502;9.860;2023-08-31T10:09:06;6.80;;;6.20;;
71288;SDS011;59068;52.502;9.860;2023-08-31T10:11:34;7.40;;;6.67;;
71288;SDS011;59068;52.502;9.860;2023-08-31T10:14:02;6.17;;;5.67;;
71288;SDS011;59068;52.502;9.860;2023-08-31T10:16:30;7.13;;;6.43;;
71288;SDS011;59068;52.502;9.860;2023-08-31T10:18:58;6.80;;;6.10;;
71288;SDS011;59068;52.502;9.860;2023-08-31T10:21:25;7.17;;;6.67;;
71288;SDS011;59068;52.502;9.860;2023-08-31T10:23:51;7.67;;;7.07;;
71288;SDS011;59068;52.502;9.860;2023-08-31T10:26:24;8.10;;;7.30;;
71288;SDS011;59068;52.502;9.860;2023-08-31T10:28:51;6.37;;;5.87;;
71288;SDS011;59068;52.502;9.860;2023-08-31T10:31:18;6.00;;;5.20;;
71288;SDS011;59068;52.502;9.860;2023-08-31T10:33:47;5.63;;;4.93;;
71288;SDS011;59068;52.502;9.860;2023-08-31T10:36:34;5.27;;;4.77;;
71288;SDS011;59068;52.502;9.860;2023-08-31T10:39:04;5.43;;;5.00;;
71288;SDS011;59068;52.502;9.860;2023-08-31T10:41:32;6.33;;;5.30;;
71288;SDS011;59068;52.502;9.860;2023-08-31T10:43:59;5.20;;;4.87;;
71288;SDS011;59068;52.502;9.860;2023-08-31T10:46:27;5.10;;;4.60;;
71288;SDS011;59068;52.502;9.860;2023-08-31T10:48:56;5.00;;;4.60;;
71288;SDS011;59068;52.502;9.860;2023-08-31T10:51:25;5.13;;;4.73;;
71288;SDS011;59068;52.502;9.860;2023-08-31T10:54:07;4.97;;;4.57;;
71288;SDS011;59068;52.502;9.860;2023-08-31T10:56:40;4.33;;;3.73;;
71288;SDS011;59068;52.502;9.860;2023-08-31T10:59:18;4.67;;;4.00;;
71288;SDS011;59068;52.502;9.860;2023-08-31T11:01:52;3.93;;;3.57;;
71288;SDS011;59068;52.502;9.860;2023-08-31T11:04:22;4.13;;;3.77;;
71288;SDS011;59068;52.502;9.860;2023-08-31T11:06:51;3.33;;;3.03;;
71288;SDS011;59068;52.502;9.860;2023-08-31T11:09:38;3.30;;;3.00;;
71288;SDS011;59068;52.502;9.860;2023-08-31T11:12:05;3.70;;;3.30;;
71288;SDS011;59068;52.502;9.860;2023-08-31T11:14:32;2.83;;;2.63;;
71288;SDS011;59068;52.502;9.860;2023-08-31T11:16:59;2.93;;;2.70;;
71288;SDS011;59068;52.502;9.860;2023-08-31T11:19:26;3.07;;;2.50;;
71288;SDS011;59068;52.502;9.860;2023-08-31T11:21:54;3.17;;;2.93;;
71288;SDS011;59068;52.502;9.860;2023-08-31T11:24:21;3.30;;;2.60;;
71288;SDS011;59068;52.502;9.860;2023-08-31T11:26:48;2.87;;;2.63;;
71288;SDS011;59068;52.502;9.860;2023-08-31T11:29:14;2.77;;;2.53;;
71288;SDS011;59068;52.502;9.860;2023-08-31T11:31:41;3.93;;;2.70;;
71288;SDS011;59068;52.502;9.860;2023-08-31T11:34:11;2.67;;;2.47;;
71288;SDS011;59068;52.502;9.860;2023-08-31T11:36:38;2.20;;;2.00;;
71288;SDS011;59068;52.502;9.860;2023-08-31T11:39:07;2.20;;;2.00;;
71288;SDS011;59068;52.502;9.860;2023-08-31T11:41:35;2.77;;;2.00;;
71288;SDS011;59068;52.502;9.860;2023-08-31T11:44:06;2.13;;;1.80;;
71288;SDS011;59068;52.502;9.860;2023-08-31T11:46:33;2.00;;;1.80;;
71288;SDS011;59068;52.502;9.860;2023-08-31T11:49:00;1.70;;;1.57;;
71288;SDS011;59068;52.502;9.860;2023-08-31T11:51:29;3.03;;;1.53;;
71288;SDS011;59068;52.502;9.860;2023-08-31T11:53:57;1.93;;;1.83;;
71288;SDS011;59068;52.502;9.860;2023-08-31T11:56:26;3.33;;;2.30;;
71288;SDS011;59068;52.502;9.860;2023-08-31T11:58:52;2.50;;;2.23;;
71288;SDS011;59068;52.502;9.860;2023-08-31T12:01:20;2.50;;;2.30;;
71288;SDS011;59068;52.502;9.860;2023-08-31T12:03:47;3.53;;;1.80;;
71288;SDS011;59068;52.502;9.860;2023-08-31T12:06:14;2.40;;;1.70;;
71288;SDS011;59068;52.502;9.860;2023-08-31T12:08:42;4.23;;;2.27;;
71288;SDS011;59068;52.502;9.860;2023-08-31T12:11:09;1.93;;;1.80;;
71288;SDS011;59068;52.502;9.860;2023-08-31T12:13:37;1.63;;;1.50;;
71288;SDS011;59068;52.502;9.860;2023-08-31T12:16:07;2.93;;;1.63;;
71288;SDS011;59068;52.502;9.860;2023-08-31T12:18:37;2.30;;;1.30;;
71288;SDS011;59068;52.502;9.860;2023-08-31T12:21:05;1.20;;;1.10;;
71288;SDS011;59068;52.502;9.860;2023-08-31T12:23:32;4.13;;;1.63;;
71288;SDS011;59068;52.502;9.860;2023-08-31T12:25:59;3.40;;;1.60;;
71288;SDS011;59068;52.502;9.860;2023-08-31T12:28:25;2.87;;;1.60;;
71288;SDS011;59068;52.502;9.860;2023-08-31T12:30:53;1.30;;;1.20;;
71288;SDS011;59068;52.502;9.860;2023-08-31T12:33:21;2.53;;;1.70;;
71288;SDS011;59068;52.502;9.860;2023-08-31T12:35:48;1.90;;;1.80;;
71288;SDS011;59068;52.502;9.860;2023-08-31T12:38:15;2.17;;;1.23;;
71288;SDS011;59068;52.502;9.860;2023-08-31T12:40:42;1.37;;;1.23;;
71288;SDS011;59068;52.502;9.860;2023-08-31T12:43:09;2.00;;;1.50;;
71288;SDS011;59068;52.502;9.860;2023-08-31T12:45:37;3.60;;;1.30;;
71288;SDS011;59068;52.502;9.860;2023-08-31T12:48:05;1.37;;;1.27;;
71288;SDS011;59068;52.502;9.860;2023-08-31T12:50:32;3.57;;;1.17;;
71288;SDS011;59068;52.502;9.860;2023-08-31T12:52:59;4.20;;;1.17;;
71288;SDS011;59068;52.502;9.860;2023-08-31T12:55:25;1.97;;;1.00;;
71288;SDS011;59068;52.502;9.860;2023-08-31T12:57:52;1.03;;;0.80;;
71288;SDS011;59068;52.502;9.860;2023-08-31T13:00:19;1.40;;;0.70;;
71288;SDS011;59068;52.502;9.860;2023-08-31T13:02:45;2.00;;;1.00;;
71288;SDS011;59068;52.502;9.860;2023-08-31T13:05:14;2.33;;;1.10;;
71288;SDS011;59068;52.502;9.860;2023-08-31T13:07:40;1.10;;;1.00;;
71288;SDS011;59068;52.502;9.860;2023-08-31T13:10:07;1.10;;;1.00;;
71288;SDS011;59068;52.502;9.860;2023-08-31T13:12:34;2.00;;;0.80;;
71288;SDS011;59068;52.502;9.860;2023-08-31T13:15:02;1.90;;;1.00;;
71288;SDS011;59068;52.502;9.860;2023-08-31T13:17:29;2.07;;;0.80;;
71288;SDS011;59068;52.502;9.860;2023-08-31T13:19:56;1.27;;;0.83;;
71288;SDS011;59068;52.502;9.860;2023-08-31T13:22:24;1.07;;;0.67;;
71288;SDS011;59068;52.502;9.860;2023-08-31T13:24:51;2.23;;;0.50;;
71288;SDS011;59068;52.502;9.860;2023-08-31T13:27:18;2.00;;;0.70;;
71288;SDS011;59068;52.502;9.860;2023-08-31T13:29:45;0.20;;;0.20;;
71288;SDS011;59068;52.502;9.860;2023-08-31T13:32:11;1.17;;;0.57;;
71288;SDS011;59068;52.502;9.860;2023-08-31T13:34:38;1.27;;;0.50;;
71288;SDS011;59068;52.502;9.860;2023-08-31T13:37:05;0.70;;;0.60;;
71288;SDS011;59068;52.502;9.860;2023-08-31T13:39:34;1.13;;;0.60;;
71288;SDS011;59068;52.502;9.860;2023-08-31T13:42:01;1.13;;;0.60;;
71288;SDS011;59068;52.502;9.860;2023-08-31T13:44:29;2.57;;;0.50;;
71288;SDS011;59068;52.502;9.860;2023-08-31T13:46:56;1.13;;;0.63;;
71288;SDS011;59068;52.502;9.860;2023-08-31T13:49:22;2.07;;;0.73;;
71288;SDS011;59068;52.502;9.860;2023-08-31T13:51:49;1.40;;;0.90;;
71288;SDS011;59068;52.502;9.860;2023-08-31T13:54:15;1.63;;;0.83;;
71288;SDS011;59068;52.502;9.860;2023-08-31T13:56:44;0.83;;;0.60;;
71288;SDS011;59068;52.502;9.860;2023-08-31T13:59:10;1.63;;;0.70;;
71288;SDS011;59068;52.502;9.860;2023-08-31T14:01:37;0.73;;;0.40;;
71288;SDS011;59068;52.502;9.860;2023-08-31T14:04:04;1.73;;;0.70;;
71288;SDS011;59068;52.502;9.860;2023-08-31T14:06:31;2.83;;;0.50;;
71288;SDS011;59068;52.502;9.860;2023-08-31T14:08:57;0.80;;;0.40;;
71288;SDS011;59068;52.502;9.860;2023-08-31T14:11:24;2.10;;;0.80;;
71288;SDS011;59068;52.502;9.860;2023-08-31T14:14:00;1.80;;;0.80;;
71288;SDS011;59068;52.502;9.860;2023-08-31T14:16:28;0.63;;;0.50;;
71288;SDS011;59068;52.502;9.860;2023-08-31T14:18:55;1.87;;;0.70;;
71288;SDS011;59068;52.502;9.860;2023-08-31T14:21:21;1.30;;;0.67;;
71288;SDS011;59068;52.502;9.860;2023-08-31T14:23:48;1.57;;;0.80;;
71288;SDS011;59068;52.502;9.860;2023-08-31T14:26:15;2.83;;;0.87;;
71288;SDS011;59068;52.502;9.860;2023-08-31T14:28:42;1.10;;;0.77;;
71288;SDS011;59068;52.502;9.860;2023-08-31T14:31:11;2.03;;;0.90;;
71288;SDS011;59068;52.502;9.860;2023-08-31T14:33:38;1.77;;;0.90;;
71288;SDS011;59068;52.502;9.860;2023-08-31T14:36:05;1.07;;;0.70;;
71288;SDS011;59068;52.502;9.860;2023-08-31T14:38:31;1.30;;;0.70;;
71288;SDS011;59068;52.502;9.860;2023-08-31T14:40:58;1.20;;;0.70;;
71288;SDS011;59068;52.502;9.860;2023-08-31T14:43:25;1.00;;;0.80;;